createdAt,value
2023-03-24T00:01:08.154Z,11.40
2023-03-24T00:03:36.704Z,11.40
2023-03-24T00:06:05.659Z,11.40
2023-03-24T00:08:36.550Z,11.40
2023-03-24T00:11:08.724Z,11.40
2023-03-24T00:13:39.231Z,11.40
2023-03-24T00:16:09.257Z,11.40
2023-03-24T00:18:37.748Z,11.40
2023-03-24T00:21:06.724Z,11.40
2023-03-24T00:23:34.818Z,11.40
2023-03-24T00:26:02.827Z,11.40
2023-03-24T00:28:33.558Z,11.40
2023-03-24T00:31:02.058Z,11.40
2023-03-24T00:33:35.523Z,11.40
2023-03-24T00:36:07.173Z,11.40
2023-03-24T00:38:35.345Z,11.40
2023-03-24T00:41:02.561Z,11.50
2023-03-24T00:43:30.489Z,11.40
2023-03-24T00:46:10.927Z,11.50
2023-03-24T00:48:38.664Z,11.50
2023-03-24T00:51:10.839Z,11.50
2023-03-24T00:53:43.797Z,11.60
2023-03-24T00:56:15.477Z,11.60
2023-03-24T00:58:42.812Z,11.60
2023-03-24T01:01:09.535Z,11.60
2023-03-24T01:03:43.366Z,11.60
2023-03-24T01:06:11.356Z,11.60
2023-03-24T01:08:38.907Z,11.60
2023-03-24T01:11:06.523Z,11.70
2023-03-24T01:13:34.542Z,11.70
2023-03-24T01:16:01.592Z,11.80
2023-03-24T01:18:28.942Z,11.90
2023-03-24T01:20:55.956Z,11.90
2023-03-24T01:23:26.179Z,11.90
2023-03-24T01:25:54.128Z,11.90
2023-03-24T01:28:25.331Z,11.90
2023-03-24T01:30:53.326Z,11.90
2023-03-24T01:33:21.641Z,11.90
2023-03-24T01:35:48.795Z,11.90
2023-03-24T01:38:16.383Z,11.90
2023-03-24T01:40:46.663Z,11.90
2023-03-24T01:43:31.424Z,11.90
2023-03-24T01:46:08.556Z,11.90
2023-03-24T01:48:41.942Z,11.90
2023-03-24T01:51:27.477Z,11.90
2023-03-24T01:53:57.681Z,11.90
2023-03-24T01:56:26.354Z,11.80
2023-03-24T01:59:08.027Z,11.80
2023-03-24T02:01:41.766Z,11.80
2023-03-24T02:04:38.931Z,11.80
2023-03-24T02:07:38.029Z,11.80
2023-03-24T02:10:09.095Z,11.80
2023-03-24T02:12:36.705Z,11.80
2023-03-24T02:15:06.989Z,11.80
2023-03-24T02:18:09.077Z,11.80
2023-03-24T02:21:00.526Z,11.70
2023-03-24T02:23:55.927Z,11.70
2023-03-24T02:26:57.814Z,11.70
2023-03-24T02:29:40.230Z,11.80
2023-03-24T02:32:33.675Z,11.80
2023-03-24T02:35:03.890Z,11.80
2023-03-24T02:37:45.104Z,11.90
2023-03-24T02:40:30.861Z,11.90
2023-03-24T02:43:07.533Z,12.00
2023-03-24T02:45:44.461Z,12.00
2023-03-24T02:48:23.164Z,12.10
2023-03-24T02:51:12.173Z,12.20
2023-03-24T02:54:07.600Z,12.20
2023-03-24T02:59:38.596Z,12.40
2023-03-24T03:02:30.442Z,12.50
2023-03-24T03:05:44.583Z,12.50
2023-03-24T03:08:17.260Z,12.50
2023-03-24T03:10:48.824Z,12.60
2023-03-24T03:13:40.361Z,12.70
2023-03-24T03:16:26.134Z,12.70
2023-03-24T03:19:01.186Z,12.80
2023-03-24T03:21:33.283Z,12.70
2023-03-24T03:24:09.335Z,12.80
2023-03-24T03:26:36.877Z,12.80
2023-03-24T03:29:19.712Z,12.80
2023-03-24T03:31:51.939Z,12.80
2023-03-24T03:34:42.279Z,12.80
2023-03-24T03:37:41.349Z,12.80
2023-03-24T03:40:38.363Z,12.80
2023-03-24T03:43:15.307Z,12.70
2023-03-24T03:45:43.065Z,12.60
2023-03-24T03:48:10.809Z,12.60
2023-03-24T03:50:39.302Z,12.50
2023-03-24T03:53:08.520Z,12.50
2023-03-24T03:55:36.732Z,12.50
2023-03-24T03:58:04.564Z,12.50
2023-03-24T04:00:38.397Z,12.50
2023-03-24T04:03:46.124Z,12.40
2023-03-24T04:06:34.325Z,12.30
2023-03-24T04:09:19.744Z,12.20
2023-03-24T04:12:04.357Z,12.10
2023-03-24T04:14:42.917Z,12.10
2023-03-24T04:18:06.391Z,12.00
2023-03-24T04:21:23.347Z,12.00
2023-03-24T04:24:11.042Z,11.90
2023-03-24T04:26:48.716Z,11.80
2023-03-24T04:29:29.848Z,11.70
2023-03-24T04:32:03.244Z,11.70
2023-03-24T04:34:37.118Z,11.60
2023-03-24T04:37:32.937Z,11.60
2023-03-24T04:40:07.356Z,11.70
2023-03-24T04:42:55.315Z,11.70
2023-03-24T04:45:27.543Z,11.70
2023-03-24T04:48:14.030Z,11.70
2023-03-24T04:51:03.464Z,11.60
2023-03-24T04:53:46.444Z,11.50
2023-03-24T04:56:26.075Z,11.40
2023-03-24T04:59:21.927Z,11.40
2023-03-24T05:01:50.398Z,11.30
2023-03-24T05:04:39.952Z,11.20
2023-03-24T05:07:27.392Z,11.20
2023-03-24T05:09:58.114Z,11.00
2023-03-24T05:12:25.439Z,11.00
2023-03-24T05:15:11.189Z,10.90
2023-03-24T05:17:39.318Z,10.80
2023-03-24T05:20:10.638Z,10.70
2023-03-24T05:22:39.914Z,10.60
2023-03-24T05:25:06.845Z,10.60
2023-03-24T05:27:34.227Z,10.60
2023-03-24T05:30:13.004Z,10.60
2023-03-24T05:32:41.176Z,10.60
2023-03-24T05:35:08.490Z,10.60
2023-03-24T05:37:36.007Z,10.50
2023-03-24T05:40:04.149Z,10.40
2023-03-24T05:42:50.533Z,10.30
2023-03-24T05:45:18.340Z,10.20
2023-03-24T05:47:47.920Z,10.10
2023-03-24T05:50:17.684Z,10.00
2023-03-24T05:52:46.384Z,10.00
2023-03-24T05:55:40.018Z,9.90
2023-03-24T05:58:25.209Z,9.90
2023-03-24T06:00:57.317Z,9.90
2023-03-24T06:03:34.665Z,10.10
2023-03-24T06:06:14.971Z,10.50
2023-03-24T06:08:44.723Z,11.50
2023-03-24T06:11:12.976Z,11.50
2023-03-24T06:13:49.690Z,11.20
2023-03-24T06:16:19.095Z,10.90
2023-03-24T06:18:53.986Z,10.70
2023-03-24T06:21:44.911Z,11.00
2023-03-24T06:24:14.679Z,10.90
2023-03-24T06:26:44.770Z,11.10
2023-03-24T06:29:12.767Z,11.80
2023-03-24T06:31:40.751Z,13.40
2023-03-24T06:34:07.764Z,14.30
2023-03-24T06:36:35.061Z,15.80
2023-03-24T06:39:03.815Z,15.60
2023-03-24T06:41:31.553Z,16.60
2023-03-24T06:44:00.850Z,17.50
2023-03-24T06:46:28.488Z,18.00
2023-03-24T06:48:55.614Z,18.20
2023-03-24T06:51:23.398Z,17.50
2023-03-24T06:53:50.032Z,16.40
2023-03-24T06:56:20.139Z,15.30
2023-03-24T06:58:55.401Z,15.70
2023-03-24T07:01:27.499Z,16.20
2023-03-24T07:03:57.209Z,16.20
2023-03-24T07:06:24.470Z,17.50
2023-03-24T07:08:54.424Z,17.20
2023-03-24T07:11:24.579Z,16.30
2023-03-24T07:13:57.741Z,15.40
2023-03-24T07:16:26.511Z,14.90
2023-03-24T07:19:02.712Z,14.90
2023-03-24T07:21:34.175Z,14.40
2023-03-24T07:24:02.095Z,14.30
2023-03-24T07:26:35.851Z,14.50
2023-03-24T07:29:17.078Z,14.70
2023-03-24T07:32:04.599Z,14.80
2023-03-24T07:34:31.903Z,14.60
2023-03-24T07:37:00.684Z,14.40
2023-03-24T07:39:28.420Z,14.70
2023-03-24T07:41:56.148Z,15.00
2023-03-24T07:44:36.223Z,14.60
2023-03-24T07:47:03.441Z,14.40
2023-03-24T07:49:30.462Z,14.50
2023-03-24T07:52:09.505Z,14.70
2023-03-24T07:54:38.663Z,14.60
2023-03-24T07:57:06.138Z,14.30
2023-03-24T07:59:34.225Z,14.40
2023-03-24T08:02:18.102Z,14.20
2023-03-24T08:04:57.557Z,14.40
2023-03-24T08:07:50.678Z,14.40
2023-03-24T08:10:17.889Z,14.10
2023-03-24T08:12:44.551Z,13.60
2023-03-24T08:15:11.548Z,13.30
2023-03-24T08:17:39.325Z,13.10
2023-03-24T08:20:12.037Z,13.10
2023-03-24T08:22:41.441Z,13.10
2023-03-24T08:25:11.190Z,13.00
2023-03-24T08:27:40.291Z,13.10
2023-03-24T08:30:10.756Z,13.30
2023-03-24T08:32:37.542Z,13.50
2023-03-24T08:35:04.981Z,13.70
2023-03-24T08:37:32.369Z,14.10
2023-03-24T08:40:05.270Z,14.10
2023-03-24T08:42:32.585Z,14.10
2023-03-24T08:44:59.177Z,14.10
2023-03-24T08:47:26.607Z,14.30
2023-03-24T08:49:57.618Z,14.30
2023-03-24T08:52:25.950Z,14.50
2023-03-24T08:54:53.118Z,14.90
2023-03-24T08:57:21.840Z,15.30
2023-03-24T08:59:51.448Z,15.50
2023-03-24T09:02:18.778Z,15.50
2023-03-24T09:04:45.833Z,15.70
2023-03-24T09:07:13.183Z,15.40
2023-03-24T09:09:40.029Z,15.00
2023-03-24T09:12:08.006Z,15.10
2023-03-24T09:14:34.603Z,14.70
2023-03-24T09:17:01.603Z,15.00
2023-03-24T09:19:28.371Z,15.40
2023-03-24T09:21:55.672Z,15.60
2023-03-24T09:24:22.295Z,15.70
2023-03-24T09:26:49.541Z,15.80
2023-03-24T09:29:16.146Z,15.70
2023-03-24T09:31:43.381Z,15.50
2023-03-24T09:34:10.266Z,15.20
2023-03-24T09:36:37.559Z,15.00
2023-03-24T09:39:04.343Z,14.70
2023-03-24T09:41:34.385Z,14.50
2023-03-24T09:44:15.888Z,14.50
2023-03-24T09:46:48.615Z,14.80
2023-03-24T09:49:28.588Z,15.30
2023-03-24T09:52:19.612Z,15.80
2023-03-24T09:54:57.313Z,16.30
2023-03-24T09:57:51.924Z,16.40
2023-03-24T10:00:28.061Z,16.30
2023-03-24T10:03:23.596Z,16.00
2023-03-24T10:06:05.302Z,15.60
2023-03-24T10:08:42.202Z,15.60
2023-03-24T10:11:28.275Z,15.60
2023-03-24T10:14:28.399Z,15.30
2023-03-24T10:17:13.093Z,15.00
2023-03-24T10:20:09.827Z,14.60
2023-03-24T10:22:42.755Z,14.60
2023-03-24T10:25:16.730Z,14.50
2023-03-24T10:28:07.630Z,14.70
2023-03-24T10:30:39.511Z,15.00
2023-03-24T10:33:06.868Z,15.00
2023-03-24T10:35:38.238Z,14.60
2023-03-24T10:38:19.131Z,14.40
2023-03-24T10:40:47.561Z,14.70
2023-03-24T10:43:17.571Z,14.80
2023-03-24T10:45:48.341Z,14.60
2023-03-24T10:48:35.082Z,14.30
2023-03-24T10:51:02.468Z,14.10
2023-03-24T10:53:29.609Z,14.00
2023-03-24T10:55:58.803Z,14.10
2023-03-24T10:58:42.959Z,14.20
2023-03-24T11:01:32.735Z,14.20
2023-03-24T11:04:03.812Z,14.40
2023-03-24T11:06:36.771Z,14.60
2023-03-24T11:09:22.149Z,14.70
2023-03-24T11:11:50.717Z,14.70
2023-03-24T11:14:26.962Z,14.70
2023-03-24T11:17:09.931Z,14.60
2023-03-24T11:19:37.694Z,14.60
2023-03-24T11:22:06.738Z,14.70
2023-03-24T11:24:38.103Z,14.70
2023-03-24T11:27:04.933Z,14.80
2023-03-24T11:29:40.067Z,14.90
2023-03-24T11:32:25.130Z,15.20
2023-03-24T11:35:09.433Z,15.20
2023-03-24T11:37:37.418Z,15.30
2023-03-24T11:40:13.495Z,15.60
2023-03-24T11:43:01.131Z,15.90
2023-03-24T11:45:59.182Z,16.10
2023-03-24T11:48:41.676Z,16.20
2023-03-24T11:51:12.449Z,16.20
2023-03-24T11:53:47.457Z,16.30
2023-03-24T11:56:36.111Z,16.20
2023-03-24T11:59:36.626Z,16.00
2023-03-24T12:02:36.810Z,15.70
2023-03-24T12:05:32.460Z,15.70
2023-03-24T12:08:04.876Z,15.60
2023-03-24T12:10:53.916Z,15.50
2023-03-24T12:13:48.856Z,15.30
2023-03-24T12:16:45.237Z,15.40
2023-03-24T12:19:50.718Z,15.60
2023-03-24T12:22:40.722Z,16.10
2023-03-24T12:25:39.376Z,16.00
2023-03-24T12:28:09.293Z,15.60
2023-03-24T12:30:51.558Z,15.30
2023-03-24T12:33:59.400Z,15.20
2023-03-24T12:37:01.572Z,15.40
2023-03-24T12:39:39.375Z,15.50
2023-03-24T12:42:16.771Z,15.50
2023-03-24T12:45:01.747Z,15.50
2023-03-24T12:47:47.813Z,15.30
2023-03-24T12:50:36.474Z,15.20
2023-03-24T12:53:41.512Z,14.90
2023-03-24T12:56:23.466Z,14.60
2023-03-24T12:58:54.779Z,14.50
2023-03-24T13:01:34.322Z,14.60
2023-03-24T13:04:10.306Z,14.70
2023-03-24T13:06:56.883Z,14.60
2023-03-24T13:09:42.321Z,14.50
2023-03-24T13:12:18.862Z,14.30
2023-03-24T13:15:11.721Z,14.30
2023-03-24T13:17:50.778Z,14.20
2023-03-24T13:20:27.157Z,14.30
2023-03-24T13:22:56.556Z,14.30
2023-03-24T13:25:43.207Z,14.50
2023-03-24T13:28:15.347Z,14.90
2023-03-24T13:30:44.690Z,14.90
2023-03-24T13:33:27.624Z,15.20
2023-03-24T13:35:54.982Z,15.50
2023-03-24T13:38:42.320Z,15.50
2023-03-24T13:41:24.509Z,15.60
2023-03-24T13:44:02.361Z,15.80
2023-03-24T13:46:30.235Z,16.00
2023-03-24T13:48:58.900Z,16.10
2023-03-24T13:51:40.118Z,16.30
2023-03-24T13:54:17.861Z,16.60
2023-03-24T13:56:49.788Z,16.50
2023-03-24T13:59:30.156Z,15.80
2023-03-24T14:02:19.491Z,15.20
2023-03-24T14:05:02.967Z,14.90
2023-03-24T14:07:32.715Z,14.50
2023-03-24T14:10:21.016Z,14.20
2023-03-24T14:13:00.012Z,14.00
2023-03-24T14:15:44.995Z,13.70
2023-03-24T14:18:24.224Z,13.40
2023-03-24T14:20:57.813Z,13.10
2023-03-24T14:23:43.973Z,13.20
2023-03-24T14:26:20.639Z,13.70
2023-03-24T14:28:52.747Z,13.90
2023-03-24T14:31:29.348Z,14.10
2023-03-24T14:34:01.953Z,14.30
2023-03-24T14:36:40.045Z,14.40
2023-03-24T14:39:08.994Z,14.30
2023-03-24T14:41:39.324Z,14.10
2023-03-24T14:44:06.300Z,13.90
2023-03-24T14:46:41.391Z,13.80
2023-03-24T14:49:23.380Z,13.80
2023-03-24T14:51:53.504Z,13.90
2023-03-24T14:54:37.966Z,13.90
2023-03-24T14:57:07.615Z,13.90
2023-03-24T14:59:51.387Z,13.80
2023-03-24T15:02:47.873Z,13.60
2023-03-24T15:05:14.906Z,13.50
2023-03-24T15:07:43.759Z,13.40
2023-03-24T15:10:18.798Z,13.20
2023-03-24T15:12:48.194Z,13.20
2023-03-24T15:15:22.638Z,13.10
2023-03-24T15:17:52.035Z,13.00
2023-03-24T15:20:24.349Z,12.90
2023-03-24T15:22:55.238Z,12.80
2023-03-24T15:25:28.038Z,12.60
2023-03-24T15:27:55.885Z,12.40
2023-03-24T15:30:22.743Z,12.00
2023-03-24T15:32:50.709Z,11.70
2023-03-24T15:35:22.785Z,11.50
2023-03-24T15:37:56.024Z,11.30
2023-03-24T15:40:36.637Z,11.20
2023-03-24T15:43:08.050Z,11.10
2023-03-24T15:45:42.911Z,11.00
2023-03-24T15:48:19.654Z,11.00
2023-03-24T15:50:59.403Z,11.00
2023-03-24T15:53:39.276Z,11.10
2023-03-24T15:56:38.436Z,11.10
2023-03-24T15:59:12.008Z,11.10
2023-03-24T16:01:44.029Z,11.10
2023-03-24T16:04:15.909Z,11.00
2023-03-24T16:06:49.191Z,11.10
2023-03-24T16:09:21.703Z,11.10
2023-03-24T16:11:49.026Z,11.30
2023-03-24T16:14:23.125Z,11.40
2023-03-24T16:16:57.436Z,11.50
2023-03-24T16:19:24.862Z,11.60
2023-03-24T16:21:52.099Z,11.50
2023-03-24T16:24:19.353Z,11.60
2023-03-24T16:26:46.026Z,11.50
2023-03-24T16:29:18.913Z,11.50
2023-03-24T16:31:49.064Z,11.40
2023-03-24T16:34:18.918Z,11.30
2023-03-24T16:36:46.844Z,11.40
2023-03-24T16:39:17.182Z,11.40
2023-03-24T16:41:45.398Z,11.30
2023-03-24T16:44:13.531Z,11.30
2023-03-24T16:46:41.659Z,11.30
2023-03-24T16:49:15.809Z,11.30
2023-03-24T16:51:42.982Z,11.30
2023-03-24T16:54:10.465Z,11.30
2023-03-24T16:56:38.092Z,11.20
2023-03-24T16:59:06.325Z,11.10
2023-03-24T17:01:37.506Z,11.10
2023-03-24T17:04:12.576Z,11.10
2023-03-24T17:06:41.767Z,11.10
2023-03-24T17:09:10.289Z,11.00
2023-03-24T17:11:40.687Z,11.00
2023-03-24T17:14:12.378Z,11.00
2023-03-24T17:16:46.605Z,10.90
2023-03-24T17:19:16.693Z,10.80
2023-03-24T17:21:49.242Z,10.70
2023-03-24T17:24:16.880Z,10.70
2023-03-24T17:26:43.689Z,10.60
2023-03-24T17:29:13.599Z,10.50
2023-03-24T17:31:42.792Z,10.40
2023-03-24T17:36:44.273Z,10.30
2023-03-24T17:39:16.715Z,10.30
2023-03-24T17:41:43.510Z,10.30
2023-03-24T17:44:11.109Z,10.20
2023-03-24T17:46:37.844Z,10.20
2023-03-24T17:49:05.320Z,10.10
2023-03-24T17:51:31.965Z,10.10
2023-03-24T17:53:59.986Z,10.00
2023-03-24T17:56:26.858Z,10.00
2023-03-24T17:58:55.246Z,10.00
2023-03-24T18:01:22.050Z,9.90
2023-03-24T18:03:49.940Z,9.90
2023-03-24T18:06:16.995Z,9.80
2023-03-24T18:08:45.010Z,9.80
2023-03-24T18:11:14.206Z,9.80
2023-03-24T18:13:42.314Z,9.70
2023-03-24T18:16:20.842Z,9.70
2023-03-24T18:18:50.590Z,9.70
2023-03-24T18:21:17.678Z,9.70
2023-03-24T18:23:46.999Z,9.60
2023-03-24T18:26:15.613Z,9.60
2023-03-24T18:28:43.418Z,9.60
2023-03-24T18:31:12.582Z,9.60
2023-03-24T18:33:42.980Z,9.70
2023-03-24T18:36:10.692Z,9.70
2023-03-24T18:38:38.874Z,9.80
2023-03-24T18:41:09.586Z,9.90
2023-03-24T18:43:45.195Z,9.90
2023-03-24T18:46:11.938Z,10.00
2023-03-24T18:48:42.011Z,10.00
2023-03-24T18:51:09.240Z,10.10
2023-03-24T18:53:36.642Z,10.10
2023-03-24T18:56:05.417Z,10.20
2023-03-24T18:58:33.893Z,10.20
2023-03-24T19:01:06.781Z,10.20
2023-03-24T19:03:35.913Z,10.20
2023-03-24T19:06:06.755Z,10.10
2023-03-24T19:08:36.103Z,10.10
2023-03-24T19:11:03.262Z,10.10
2023-03-24T19:13:30.936Z,10.10
2023-03-24T19:15:57.547Z,10.10
2023-03-24T19:18:25.563Z,10.20
2023-03-24T19:20:59.326Z,10.20
2023-03-24T19:23:27.256Z,10.20
2023-03-24T19:25:56.868Z,10.20
2023-03-24T19:28:29.728Z,10.20
2023-03-24T19:30:57.490Z,10.20
2023-03-24T19:33:25.719Z,10.10
2023-03-24T19:35:52.768Z,10.10
2023-03-24T19:38:24.156Z,10.00
2023-03-24T19:40:54.139Z,10.00
2023-03-24T19:43:23.028Z,10.00
2023-03-24T19:45:58.500Z,9.90
2023-03-24T19:48:25.818Z,9.90
2023-03-24T19:50:54.200Z,9.80
2023-03-24T19:53:22.338Z,9.70
2023-03-24T19:55:49.866Z,9.70
2023-03-24T19:58:17.945Z,9.60
2023-03-24T20:00:44.617Z,9.60
2023-03-24T20:03:12.256Z,9.60
2023-03-24T20:05:38.956Z,9.50
2023-03-24T20:08:06.466Z,9.50
2023-03-24T20:10:36.075Z,9.50
2023-03-24T20:13:03.652Z,9.40
2023-03-24T20:15:30.531Z,9.40
2023-03-24T20:17:57.954Z,9.30
2023-03-24T20:20:24.787Z,9.30
2023-03-24T20:22:51.732Z,9.20
2023-03-24T20:25:19.535Z,9.20
2023-03-24T20:27:47.312Z,9.20
2023-03-24T20:30:17.685Z,9.20
2023-03-24T20:32:44.448Z,9.20
2023-03-24T20:35:11.993Z,9.20
2023-03-24T20:37:38.691Z,9.10
2023-03-24T20:40:09.474Z,9.20
2023-03-24T20:42:37.387Z,9.10
2023-03-24T20:45:06.826Z,9.20
2023-03-24T20:47:33.924Z,9.10
2023-03-24T20:50:01.541Z,9.10
2023-03-24T20:52:28.960Z,9.10
2023-03-24T20:54:56.750Z,9.10
2023-03-24T20:57:26.175Z,9.10
2023-03-24T20:59:53.380Z,9.10
2023-03-24T21:02:20.150Z,9.00
2023-03-24T21:04:47.320Z,9.00
2023-03-24T21:07:13.997Z,8.90
2023-03-24T21:09:41.316Z,8.90
2023-03-24T21:12:09.271Z,8.90
2023-03-24T21:14:36.701Z,8.90
2023-03-24T21:17:03.777Z,8.90
2023-03-24T21:19:31.127Z,8.90
2023-03-24T21:21:57.746Z,8.90
2023-03-24T21:24:25.191Z,8.90
2023-03-24T21:26:53.736Z,8.90
2023-03-24T21:29:22.750Z,8.90
2023-03-24T21:31:49.749Z,8.90
2023-03-24T21:34:17.297Z,9.00
2023-03-24T21:36:43.960Z,9.00
2023-03-24T21:39:12.194Z,9.00
2023-03-24T21:41:39.574Z,9.10
2023-03-24T21:44:09.517Z,9.10
2023-03-24T21:46:36.903Z,9.20
2023-03-24T21:49:05.335Z,9.20
2023-03-24T21:51:33.982Z,9.20
2023-03-24T21:54:06.140Z,9.30
2023-03-24T21:56:34.233Z,9.20
2023-03-24T21:59:01.813Z,9.30
2023-03-24T22:01:28.743Z,9.30
2023-03-24T22:03:56.095Z,9.30
2023-03-24T22:06:23.192Z,9.40
2023-03-24T22:08:53.341Z,9.40
2023-03-24T22:11:20.186Z,9.40
2023-03-24T22:13:47.585Z,9.40
2023-03-24T22:16:14.830Z,9.40
2023-03-24T22:18:42.579Z,9.40
2023-03-24T22:21:10.860Z,9.40
2023-03-24T22:23:40.110Z,9.40
2023-03-24T22:26:12.904Z,9.30
2023-03-24T22:28:40.702Z,9.20
2023-03-24T22:31:10.167Z,9.20
2023-03-24T22:33:37.812Z,9.20
2023-03-24T22:36:05.451Z,9.20
2023-03-24T22:38:34.559Z,9.20
2023-03-24T22:41:07.251Z,9.20
2023-03-24T22:43:35.442Z,9.10
2023-03-24T22:46:02.678Z,9.10
2023-03-24T22:48:29.654Z,9.10
2023-03-24T22:50:56.540Z,9.10
2023-03-24T22:53:23.610Z,9.10
2023-03-24T22:55:50.643Z,9.00
2023-03-24T22:58:17.753Z,9.00
2023-03-24T23:00:47.173Z,9.00
2023-03-24T23:03:14.714Z,9.00
2023-03-24T23:05:43.297Z,9.00
2023-03-24T23:08:11.809Z,8.90
2023-03-24T23:10:39.925Z,8.90
2023-03-24T23:13:07.648Z,8.90
2023-03-24T23:15:34.802Z,8.80
2023-03-24T23:18:01.420Z,8.80
2023-03-24T23:20:29.521Z,8.80
2023-03-24T23:22:56.954Z,8.90
2023-03-24T23:28:14.292Z,8.80
2023-03-24T23:30:41.178Z,8.70
2023-03-24T23:33:08.309Z,8.70
2023-03-24T23:35:37.676Z,8.60
2023-03-24T23:38:05.588Z,8.60
2023-03-24T23:40:32.218Z,8.50
2023-03-24T23:42:59.140Z,8.50
2023-03-24T23:45:26.561Z,8.40
2023-03-24T23:47:53.655Z,8.40
2023-03-24T23:50:21.764Z,8.40
2023-03-24T23:52:48.804Z,8.40
2023-03-24T23:55:18.380Z,8.50
2023-03-24T23:57:46.555Z,8.50
